createdAt,value
2024-03-14T00:00:50.245Z,8.81
2024-03-14T00:01:50.251Z,8.80
2024-03-14T00:02:50.313Z,8.81
2024-03-14T00:03:50.208Z,8.79
2024-03-14T00:04:50.212Z,8.80
2024-03-14T00:05:50.205Z,8.79
2024-03-14T00:06:50.166Z,8.80
2024-03-14T00:07:50.176Z,8.79
2024-03-14T00:08:51.465Z,8.79
2024-03-14T00:09:50.162Z,8.79
2024-03-14T00:10:50.202Z,8.77
2024-03-14T00:11:50.151Z,8.77
2024-03-14T00:12:50.123Z,8.77
2024-03-14T00:13:50.104Z,8.77
2024-03-14T00:14:50.117Z,8.76
2024-03-14T00:15:50.086Z,8.76
2024-03-14T00:16:50.060Z,8.73
2024-03-14T00:17:50.141Z,8.70
2024-03-14T00:18:50.050Z,8.68
2024-03-14T00:19:50.033Z,8.66
2024-03-14T00:20:50.096Z,8.63
2024-03-14T00:21:50.002Z,8.62
2024-03-14T00:22:50.014Z,8.59
2024-03-14T00:23:50.011Z,8.59
2024-03-14T00:24:49.977Z,8.61
2024-03-14T00:25:49.974Z,8.59
2024-03-14T00:26:50.033Z,8.62
2024-03-14T00:27:49.966Z,8.61
2024-03-14T00:28:49.952Z,8.59
2024-03-14T00:29:49.970Z,8.61
2024-03-14T00:30:49.915Z,8.58
2024-03-14T00:31:49.968Z,8.56
2024-03-14T00:32:49.981Z,8.58
2024-03-14T00:33:49.963Z,8.58
2024-03-14T00:34:49.880Z,8.59
2024-03-14T00:35:49.875Z,8.59
2024-03-14T00:36:49.870Z,8.59
2024-03-14T00:37:49.876Z,8.58
2024-03-14T00:38:49.944Z,8.58
2024-03-14T00:39:49.822Z,8.56
2024-03-14T00:40:49.831Z,8.58
2024-03-14T00:41:49.838Z,8.58
2024-03-14T00:42:49.805Z,8.56
2024-03-14T00:43:49.799Z,8.58
2024-03-14T00:44:49.816Z,8.56
2024-03-14T00:45:49.792Z,8.59
2024-03-14T00:46:49.770Z,8.61
2024-03-14T00:47:49.863Z,8.61
2024-03-14T00:48:49.794Z,8.61
2024-03-14T00:49:49.732Z,8.62
2024-03-14T00:50:49.722Z,8.63
2024-03-14T00:51:49.680Z,8.63
2024-03-14T00:52:49.706Z,8.65
2024-03-14T00:53:49.687Z,8.65
2024-03-14T00:54:49.673Z,8.65
2024-03-14T00:55:49.651Z,8.66
2024-03-14T00:56:49.707Z,8.66
2024-03-14T00:57:49.633Z,8.68
2024-03-14T00:58:49.657Z,8.70
2024-03-14T00:59:49.631Z,8.70
2024-03-14T01:00:49.675Z,8.71
2024-03-14T01:01:49.604Z,8.71
2024-03-14T01:02:49.589Z,8.73
2024-03-14T01:03:49.606Z,8.74
2024-03-14T01:04:49.574Z,8.71
2024-03-14T01:05:49.592Z,8.70
2024-03-14T01:06:49.538Z,8.70
2024-03-14T01:07:49.518Z,8.71
2024-03-14T01:08:49.550Z,8.71
2024-03-14T01:09:49.520Z,8.70
2024-03-14T01:10:49.507Z,8.73
2024-03-14T01:11:49.514Z,8.73
2024-03-14T01:12:49.516Z,8.70
2024-03-14T01:13:49.447Z,8.73
2024-03-14T01:14:49.444Z,8.74
2024-03-14T01:15:49.454Z,8.74
2024-03-14T01:16:49.460Z,8.74
2024-03-14T01:17:49.512Z,8.76
2024-03-14T01:18:49.453Z,8.74
2024-03-14T01:19:49.392Z,8.77
2024-03-14T01:20:49.451Z,8.76
2024-03-14T01:21:49.375Z,8.77
2024-03-14T01:22:49.385Z,8.79
2024-03-14T01:23:49.448Z,8.79
2024-03-14T01:24:49.368Z,8.76
2024-03-14T01:25:49.348Z,8.77
2024-03-14T01:26:49.419Z,8.74
2024-03-14T01:27:49.309Z,8.71
2024-03-14T01:28:49.289Z,8.63
2024-03-14T01:29:49.337Z,8.55
2024-03-14T01:30:49.294Z,8.44
2024-03-14T01:31:49.257Z,8.40
2024-03-14T01:32:49.386Z,8.37
2024-03-14T01:33:49.500Z,8.30
2024-03-14T01:34:49.256Z,8.25
2024-03-14T01:35:49.239Z,8.18
2024-03-14T01:36:49.231Z,8.11
2024-03-14T01:37:49.188Z,8.10
2024-03-14T01:38:49.376Z,8.07
2024-03-14T01:39:49.192Z,8.00
2024-03-14T01:40:49.184Z,7.95
2024-03-14T01:41:49.241Z,7.92
2024-03-14T01:42:49.166Z,7.89
2024-03-14T01:43:49.139Z,7.89
2024-03-14T01:44:49.149Z,7.86
2024-03-14T01:45:49.171Z,7.86
2024-03-14T01:46:49.138Z,7.85
2024-03-14T01:47:49.275Z,7.86
2024-03-14T01:48:49.230Z,7.86
2024-03-14T01:49:49.099Z,7.85
2024-03-14T01:50:49.128Z,7.83
2024-03-14T01:51:49.070Z,7.85
2024-03-14T01:52:49.063Z,7.85
2024-03-14T01:53:49.046Z,7.85
2024-03-14T01:54:49.033Z,7.85
2024-03-14T01:55:49.049Z,7.83
2024-03-14T01:56:49.095Z,7.85
2024-03-14T01:57:49.006Z,7.85
2024-03-14T01:58:48.984Z,7.85
2024-03-14T01:59:49.019Z,7.86
2024-03-14T02:00:48.974Z,7.85
2024-03-14T02:01:48.938Z,7.85
2024-03-14T02:02:49.056Z,7.86
2024-03-14T02:03:48.928Z,7.87
2024-03-14T02:04:48.979Z,7.89
2024-03-14T02:05:48.960Z,7.90
2024-03-14T02:06:48.892Z,7.89
2024-03-14T02:07:48.894Z,7.87
2024-03-14T02:08:48.902Z,7.89
2024-03-14T02:09:48.854Z,7.89
2024-03-14T02:10:48.838Z,7.90
2024-03-14T02:11:48.909Z,7.90
2024-03-14T02:12:48.820Z,7.90
2024-03-14T02:13:48.843Z,7.89
2024-03-14T02:14:48.825Z,7.89
2024-03-14T02:15:48.791Z,7.89
2024-03-14T02:16:48.803Z,7.86
2024-03-14T02:17:48.834Z,7.87
2024-03-14T02:18:48.886Z,7.89
2024-03-14T02:19:48.759Z,7.90
2024-03-14T02:20:48.760Z,7.90
2024-03-14T02:21:48.737Z,7.90
2024-03-14T02:22:48.746Z,7.92
2024-03-14T02:23:48.720Z,7.92
2024-03-14T02:24:48.727Z,7.93
2024-03-14T02:25:48.681Z,7.93
2024-03-14T02:26:48.688Z,7.93
2024-03-14T02:27:48.694Z,7.93
2024-03-14T02:28:48.679Z,7.93
2024-03-14T02:29:48.674Z,7.95
2024-03-14T02:30:48.644Z,7.95
2024-03-14T02:31:48.645Z,7.93
2024-03-14T02:32:48.671Z,7.97
2024-03-14T02:33:48.631Z,7.97
2024-03-14T02:34:48.590Z,7.97
2024-03-14T02:35:48.660Z,7.97
2024-03-14T02:36:48.591Z,7.97
2024-03-14T02:37:48.579Z,7.97
2024-03-14T02:38:48.600Z,7.97
2024-03-14T02:39:48.546Z,8.00
2024-03-14T02:40:48.577Z,8.00
2024-03-14T02:41:48.541Z,7.98
2024-03-14T02:42:48.511Z,8.00
2024-03-14T02:43:48.509Z,7.98
2024-03-14T02:44:48.513Z,8.00
2024-03-14T02:45:48.496Z,7.98
2024-03-14T02:46:48.488Z,8.00
2024-03-14T02:47:48.471Z,8.01
2024-03-14T02:48:48.538Z,8.01
2024-03-14T02:49:48.427Z,8.02
2024-03-14T02:50:48.423Z,8.04
2024-03-14T02:51:48.400Z,8.04
2024-03-14T02:52:48.430Z,8.04
2024-03-14T02:53:48.443Z,8.04
2024-03-14T02:54:48.382Z,8.04
2024-03-14T02:55:48.368Z,8.05
2024-03-14T02:56:48.799Z,8.05
2024-03-14T02:57:48.357Z,8.05
2024-03-14T02:58:48.351Z,8.04
2024-03-14T02:59:48.390Z,8.04
2024-03-14T03:00:48.316Z,8.02
2024-03-14T03:01:48.349Z,8.05
2024-03-14T03:02:48.332Z,8.02
2024-03-14T03:03:48.342Z,8.00
2024-03-14T03:04:48.281Z,8.01
2024-03-14T03:05:48.327Z,8.01
2024-03-14T03:06:48.242Z,8.01
2024-03-14T03:07:48.253Z,8.01
2024-03-14T03:08:48.282Z,8.02
2024-03-14T03:09:48.260Z,8.02
2024-03-14T03:10:48.195Z,8.04
2024-03-14T03:11:48.345Z,8.05
2024-03-14T03:12:48.233Z,8.04
2024-03-14T03:13:48.172Z,8.07
2024-03-14T03:14:48.192Z,8.08
2024-03-14T03:15:48.199Z,8.05
2024-03-14T03:16:48.170Z,8.08
2024-03-14T03:17:48.186Z,8.11
2024-03-14T03:18:48.183Z,8.11
2024-03-14T03:19:48.128Z,8.11
2024-03-14T03:20:48.148Z,8.11
2024-03-14T03:21:48.119Z,8.12
2024-03-14T03:22:48.097Z,8.16
2024-03-14T03:23:48.124Z,8.18
2024-03-14T03:24:48.055Z,8.16
2024-03-14T03:25:48.039Z,8.16
2024-03-14T03:26:48.099Z,8.18
2024-03-14T03:27:48.036Z,8.19
2024-03-14T03:28:48.028Z,8.19
2024-03-14T03:29:48.027Z,8.18
2024-03-14T03:30:48.000Z,8.19
2024-03-14T03:31:48.017Z,8.22
2024-03-14T03:32:48.139Z,8.20
2024-03-14T03:33:47.982Z,8.22
2024-03-14T03:34:48.014Z,8.23
2024-03-14T03:35:47.951Z,8.26
2024-03-14T03:36:47.991Z,8.25
2024-03-14T03:37:47.917Z,8.26
2024-03-14T03:38:47.910Z,8.25
2024-03-14T03:39:47.987Z,8.26
2024-03-14T03:40:47.894Z,8.26
2024-03-14T03:41:48.053Z,8.26
2024-03-14T03:42:47.877Z,8.26
2024-03-14T03:43:47.871Z,8.29
2024-03-14T03:44:47.902Z,8.28
2024-03-14T03:45:47.890Z,8.29
2024-03-14T03:46:47.870Z,8.28
2024-03-14T03:47:47.930Z,8.30
2024-03-14T03:48:47.821Z,8.30
2024-03-14T03:49:47.836Z,8.33
2024-03-14T03:50:47.800Z,8.33
2024-03-14T03:51:47.781Z,8.33
2024-03-14T03:52:47.786Z,8.33
2024-03-14T03:53:47.841Z,8.34
2024-03-14T03:54:47.766Z,8.34
2024-03-14T03:55:47.749Z,8.33
2024-03-14T03:56:47.761Z,8.34
2024-03-14T03:57:48.092Z,8.36
2024-03-14T03:58:47.723Z,8.37
2024-03-14T03:59:47.756Z,8.40
2024-03-14T04:00:47.701Z,8.37
2024-03-14T04:01:47.697Z,8.38
2024-03-14T04:02:47.675Z,8.40
2024-03-14T04:03:47.654Z,8.40
2024-03-14T04:04:47.686Z,8.40
2024-03-14T04:05:47.705Z,8.40
2024-03-14T04:06:47.614Z,8.43
2024-03-14T04:07:47.605Z,8.41
2024-03-14T04:08:47.818Z,8.40
2024-03-14T04:09:47.634Z,8.37
2024-03-14T04:10:47.625Z,8.37
2024-03-14T04:11:47.613Z,8.37
2024-03-14T04:12:47.574Z,8.37
2024-03-14T04:13:47.554Z,8.37
2024-03-14T04:14:47.580Z,8.37
2024-03-14T04:15:47.550Z,8.38
2024-03-14T04:16:47.509Z,8.38
2024-03-14T04:17:47.664Z,8.41
2024-03-14T04:18:47.517Z,8.40
2024-03-14T04:19:47.541Z,8.41
2024-03-14T04:20:47.619Z,8.41
2024-03-14T04:21:47.458Z,8.43
2024-03-14T04:22:47.445Z,8.43
2024-03-14T04:23:47.495Z,8.44
2024-03-14T04:24:47.423Z,8.44
2024-03-14T04:25:47.439Z,8.45
2024-03-14T04:26:47.472Z,8.45
2024-03-14T04:27:47.399Z,8.45
2024-03-14T04:28:47.398Z,8.45
2024-03-14T04:29:47.385Z,8.47
2024-03-14T04:30:47.386Z,8.45
2024-03-14T04:31:47.384Z,8.47
2024-03-14T04:32:47.487Z,8.48
2024-03-14T04:33:47.487Z,8.48
2024-03-14T04:34:47.323Z,8.47
2024-03-14T04:35:47.425Z,8.48
2024-03-14T04:36:47.299Z,8.50
2024-03-14T04:37:47.311Z,8.50
2024-03-14T04:38:47.290Z,8.50
2024-03-14T04:39:47.272Z,8.50
2024-03-14T04:40:47.279Z,8.52
2024-03-14T04:41:47.315Z,8.48
2024-03-14T04:42:47.259Z,8.52
2024-03-14T04:43:47.233Z,8.53
2024-03-14T04:44:47.251Z,8.52
2024-03-14T04:45:47.214Z,8.53
2024-03-14T04:46:47.203Z,8.56
2024-03-14T04:47:47.382Z,8.53
2024-03-14T04:48:47.222Z,8.55
2024-03-14T04:49:47.183Z,8.56
2024-03-14T04:50:47.288Z,8.55
2024-03-14T04:51:47.187Z,8.58
2024-03-14T04:52:47.129Z,8.58
2024-03-14T04:53:47.186Z,8.58
2024-03-14T04:54:47.097Z,8.58
2024-03-14T04:55:47.640Z,8.58
2024-03-14T04:56:47.100Z,8.59
2024-03-14T04:57:47.100Z,8.61
2024-03-14T04:58:47.083Z,8.61
2024-03-14T04:59:47.139Z,8.62
2024-03-14T05:00:47.488Z,8.61
2024-03-14T05:01:47.112Z,8.62
2024-03-14T05:02:47.128Z,8.61
2024-03-14T05:03:47.005Z,8.63
2024-03-14T05:04:47.001Z,8.63
2024-03-14T05:05:47.063Z,8.62
2024-03-14T05:06:46.988Z,8.65
2024-03-14T05:07:47.009Z,8.65
2024-03-14T05:08:46.984Z,8.65
2024-03-14T05:09:46.988Z,8.65
2024-03-14T05:10:47.017Z,8.65
2024-03-14T05:11:46.926Z,8.66
2024-03-14T05:12:46.922Z,8.65
2024-03-14T05:13:46.936Z,8.66
2024-03-14T05:14:46.896Z,8.68
2024-03-14T05:15:47.032Z,8.68
2024-03-14T05:16:46.901Z,8.66
2024-03-14T05:17:47.354Z,8.66
2024-03-14T05:18:46.963Z,8.66
2024-03-14T05:19:46.833Z,8.66
2024-03-14T05:20:46.839Z,8.68
2024-03-14T05:21:46.845Z,8.68
2024-03-14T05:22:46.817Z,8.68
2024-03-14T05:23:46.812Z,8.70
2024-03-14T05:24:46.799Z,8.71
2024-03-14T05:25:46.772Z,8.68
2024-03-14T05:26:46.768Z,8.71
2024-03-14T05:27:46.986Z,8.71
2024-03-14T05:28:46.752Z,8.70
2024-03-14T05:29:46.808Z,8.71
2024-03-14T05:30:46.768Z,8.71
2024-03-14T05:31:46.718Z,8.73
2024-03-14T05:32:46.718Z,8.74
2024-03-14T05:33:46.768Z,8.73
2024-03-14T05:34:46.698Z,8.73
2024-03-14T05:35:46.703Z,8.76
2024-03-14T05:36:46.674Z,8.73
2024-03-14T05:37:46.685Z,8.74
2024-03-14T05:38:46.653Z,8.79
2024-03-14T05:39:46.650Z,8.79
2024-03-14T05:40:46.668Z,8.80
2024-03-14T05:41:46.608Z,8.80
2024-03-14T05:42:46.678Z,8.81
2024-03-14T05:43:46.606Z,8.83
2024-03-14T05:44:46.594Z,8.84
2024-03-14T05:45:46.635Z,8.83
2024-03-14T05:46:46.586Z,8.84
2024-03-14T05:47:46.698Z,8.84
2024-03-14T05:48:46.561Z,8.86
2024-03-14T05:49:46.527Z,8.86
2024-03-14T05:50:46.535Z,8.86
2024-03-14T05:51:46.513Z,8.89
2024-03-14T05:52:46.498Z,8.91
2024-03-14T05:53:46.488Z,8.89
2024-03-14T05:54:46.503Z,8.92
2024-03-14T05:55:48.877Z,8.96
2024-03-14T05:56:46.477Z,8.98
2024-03-14T05:57:46.448Z,9.01
2024-03-14T05:58:46.439Z,9.04
2024-03-14T05:59:46.413Z,9.10
2024-03-14T06:00:46.491Z,9.13
2024-03-14T06:01:46.442Z,9.17
2024-03-14T06:02:46.408Z,9.17
2024-03-14T06:03:46.410Z,9.18
2024-03-14T06:04:46.392Z,9.21
2024-03-14T06:05:46.377Z,9.21
2024-03-14T06:06:46.368Z,9.24
2024-03-14T06:07:46.360Z,9.26
2024-03-14T06:08:46.370Z,9.28
2024-03-14T06:09:46.343Z,9.29
2024-03-14T06:10:46.375Z,9.32
2024-03-14T06:11:46.303Z,9.31
2024-03-14T06:12:46.302Z,9.35
2024-03-14T06:13:46.287Z,9.35
2024-03-14T06:14:46.287Z,9.36
2024-03-14T06:15:46.306Z,9.38
2024-03-14T06:16:46.245Z,9.39
2024-03-14T06:17:46.291Z,9.39
2024-03-14T06:18:46.289Z,9.39
2024-03-14T06:19:46.222Z,9.38
2024-03-14T06:20:46.289Z,9.36
2024-03-14T06:21:46.197Z,9.35
2024-03-14T06:22:46.291Z,9.36
2024-03-14T06:23:46.185Z,9.36
2024-03-14T06:24:46.180Z,9.35
2024-03-14T06:25:46.224Z,9.35
2024-03-14T06:26:46.165Z,9.35
2024-03-14T06:27:46.236Z,9.35
2024-03-14T06:28:46.126Z,9.38
2024-03-14T06:29:46.131Z,9.38
2024-03-14T06:30:46.112Z,9.38
2024-03-14T06:31:46.107Z,9.36
2024-03-14T06:32:46.132Z,9.38
2024-03-14T06:33:46.135Z,9.36
2024-03-14T06:34:46.054Z,9.38
2024-03-14T06:35:46.071Z,9.39
2024-03-14T06:36:46.069Z,9.40
2024-03-14T06:37:46.039Z,9.39
2024-03-14T06:38:46.033Z,9.39
2024-03-14T06:39:46.084Z,9.38
2024-03-14T06:40:46.059Z,9.38
2024-03-14T06:41:46.019Z,9.39
2024-03-14T06:42:46.008Z,9.38
2024-03-14T06:43:45.976Z,9.38
2024-03-14T06:44:45.993Z,9.38
2024-03-14T06:45:46.049Z,9.38
2024-03-14T06:46:45.964Z,9.39
2024-03-14T06:47:46.003Z,9.38
2024-03-14T06:48:45.932Z,9.39
2024-03-14T06:49:45.891Z,9.39
2024-03-14T06:50:45.940Z,9.40
2024-03-14T06:51:45.942Z,9.40
2024-03-14T06:52:45.901Z,9.42
2024-03-14T06:53:45.870Z,9.42
2024-03-14T06:54:45.926Z,9.40
2024-03-14T06:55:45.832Z,9.42
2024-03-14T06:56:45.819Z,9.43
2024-03-14T06:57:45.892Z,9.42
2024-03-14T06:58:45.826Z,9.42
2024-03-14T06:59:46.930Z,9.46
2024-03-14T07:00:45.891Z,9.47
2024-03-14T07:01:45.793Z,9.48
2024-03-14T07:02:45.849Z,9.47
2024-03-14T07:03:45.771Z,9.48
2024-03-14T07:04:45.754Z,9.51
2024-03-14T07:05:45.739Z,9.53
2024-03-14T07:06:45.725Z,9.51
2024-03-14T07:07:45.932Z,9.54
2024-03-14T07:08:45.737Z,9.56
2024-03-14T07:09:45.706Z,9.58
2024-03-14T07:10:45.708Z,9.60
2024-03-14T07:11:45.660Z,9.60
2024-03-14T07:12:45.735Z,9.61
2024-03-14T07:13:45.669Z,9.64
2024-03-14T07:14:45.664Z,9.68
2024-03-14T07:15:45.666Z,9.66
2024-03-14T07:16:45.831Z,9.69
2024-03-14T07:17:45.656Z,9.71
2024-03-14T07:18:45.654Z,9.72
2024-03-14T07:19:45.593Z,9.75
2024-03-14T07:20:45.589Z,9.74
2024-03-14T07:21:45.571Z,9.74
2024-03-14T07:22:45.549Z,9.72
2024-03-14T07:23:45.551Z,9.74
2024-03-14T07:24:45.533Z,9.74
2024-03-14T07:25:45.546Z,9.75
2024-03-14T07:26:45.514Z,9.76
2024-03-14T07:27:45.502Z,9.78
2024-03-14T07:28:45.488Z,9.79
2024-03-14T07:29:45.469Z,9.81
2024-03-14T07:30:45.522Z,9.81
2024-03-14T07:31:45.453Z,9.83
2024-03-14T07:32:45.454Z,9.83
2024-03-14T07:33:45.465Z,9.84
2024-03-14T07:34:45.443Z,9.87
2024-03-14T07:35:45.421Z,9.89
2024-03-14T07:36:45.480Z,9.87
2024-03-14T07:37:45.387Z,9.90
2024-03-14T07:38:45.510Z,9.90
2024-03-14T07:39:45.397Z,9.90
2024-03-14T07:40:45.390Z,9.90
2024-03-14T07:41:45.365Z,9.89
2024-03-14T07:42:45.337Z,9.90
2024-03-14T07:43:45.339Z,9.94
2024-03-14T07:44:45.342Z,9.94
2024-03-14T07:45:45.354Z,9.93
2024-03-14T07:46:45.401Z,9.96
2024-03-14T07:47:45.510Z,9.96
2024-03-14T07:48:45.351Z,9.94
2024-03-14T07:49:45.276Z,9.97
2024-03-14T07:50:45.329Z,9.99
2024-03-14T07:51:45.277Z,9.99
2024-03-14T07:52:45.252Z,10.01
2024-03-14T07:53:45.242Z,10.02
2024-03-14T07:54:45.294Z,10.04
2024-03-14T07:55:45.248Z,10.02
2024-03-14T07:56:45.192Z,10.05
2024-03-14T07:57:45.185Z,10.05
2024-03-14T07:58:45.209Z,10.07
2024-03-14T07:59:45.165Z,10.08
2024-03-14T08:00:45.199Z,10.07
2024-03-14T08:01:45.141Z,10.08
2024-03-14T08:02:45.138Z,10.11
2024-03-14T08:03:45.203Z,10.12
2024-03-14T08:04:45.162Z,10.15
2024-03-14T08:05:45.097Z,10.15
2024-03-14T08:06:45.128Z,10.15
2024-03-14T08:07:45.097Z,10.15
2024-03-14T08:08:45.076Z,10.15
2024-03-14T08:09:45.083Z,10.15
2024-03-14T08:10:45.046Z,10.18
2024-03-14T08:11:45.040Z,10.22
2024-03-14T08:12:45.060Z,10.20
2024-03-14T08:13:45.025Z,10.22
2024-03-14T08:14:45.047Z,10.22
2024-03-14T08:15:46.184Z,10.23
2024-03-14T08:16:44.990Z,10.22
2024-03-14T08:17:45.021Z,10.23
2024-03-14T08:18:45.004Z,10.25
2024-03-14T08:19:44.968Z,10.27
2024-03-14T08:20:44.981Z,10.29
2024-03-14T08:21:45.028Z,10.30
2024-03-14T08:22:44.927Z,10.32
2024-03-14T08:23:44.938Z,10.32
2024-03-14T08:24:44.916Z,10.32
2024-03-14T08:25:44.911Z,10.32
2024-03-14T08:26:44.928Z,10.33
2024-03-14T08:27:44.938Z,10.36
2024-03-14T08:28:44.862Z,10.38
2024-03-14T08:29:44.839Z,10.38
2024-03-14T08:30:44.841Z,10.41
2024-03-14T08:31:44.860Z,10.42
2024-03-14T08:32:44.827Z,10.45
2024-03-14T08:33:44.843Z,10.47
2024-03-14T08:34:44.787Z,10.45
2024-03-14T08:35:45.115Z,10.48
2024-03-14T08:36:44.818Z,10.51
2024-03-14T08:37:44.989Z,10.51
2024-03-14T08:38:44.751Z,10.52
2024-03-14T08:39:44.840Z,10.53
2024-03-14T08:40:44.731Z,10.56
2024-03-14T08:41:44.761Z,10.56
2024-03-14T08:42:48.842Z,10.60
2024-03-14T08:43:44.703Z,10.63
2024-03-14T08:44:44.672Z,10.64
2024-03-14T08:45:44.805Z,10.66
2024-03-14T08:46:44.720Z,10.68
2024-03-14T08:47:44.710Z,10.70
2024-03-14T08:48:44.781Z,10.73
2024-03-14T08:49:44.628Z,10.74
2024-03-14T08:50:44.618Z,10.79
2024-03-14T08:51:44.696Z,10.82
2024-03-14T08:52:44.623Z,10.84
2024-03-14T08:53:44.615Z,10.86
2024-03-14T08:54:44.598Z,10.88
2024-03-14T08:55:44.599Z,10.89
2024-03-14T08:56:44.574Z,10.91
2024-03-14T08:57:44.649Z,10.92
2024-03-14T08:58:44.580Z,10.96
2024-03-14T08:59:44.523Z,10.99
2024-03-14T09:00:44.617Z,11.02
2024-03-14T09:01:44.501Z,11.03
2024-03-14T09:02:44.512Z,11.06
2024-03-14T09:03:44.500Z,11.07
2024-03-14T09:04:44.491Z,11.09
2024-03-14T09:05:44.481Z,11.09
2024-03-14T09:06:44.496Z,11.10
2024-03-14T09:07:44.483Z,11.11
2024-03-14T09:08:44.443Z,11.15
2024-03-14T09:09:44.416Z,11.17
2024-03-14T09:10:44.470Z,11.17
2024-03-14T09:11:44.519Z,11.18
2024-03-14T09:12:44.520Z,11.21
2024-03-14T09:13:44.397Z,11.22
2024-03-14T09:14:44.374Z,11.22
2024-03-14T09:15:44.521Z,11.25
2024-03-14T09:16:44.423Z,11.29
2024-03-14T09:17:44.412Z,11.33
2024-03-14T09:18:44.411Z,11.35
2024-03-14T09:19:44.346Z,11.33
2024-03-14T09:20:44.297Z,11.35
2024-03-14T09:21:44.402Z,11.32
2024-03-14T09:22:44.273Z,11.35
2024-03-14T09:23:44.272Z,11.37
2024-03-14T09:24:44.685Z,11.36
2024-03-14T09:25:44.293Z,11.40
2024-03-14T09:26:44.792Z,11.43
2024-03-14T09:27:44.405Z,11.44
2024-03-14T09:28:44.279Z,11.46
2024-03-14T09:29:44.307Z,11.44
2024-03-14T09:30:44.373Z,11.49
2024-03-14T09:31:44.210Z,11.49
2024-03-14T09:32:44.257Z,11.49
2024-03-14T09:33:44.205Z,11.51
2024-03-14T09:34:44.255Z,11.52
2024-03-14T09:35:44.410Z,11.57
2024-03-14T09:36:44.178Z,11.62
2024-03-14T09:37:44.144Z,11.64
2024-03-14T09:38:44.163Z,11.67
2024-03-14T09:39:44.150Z,11.72
2024-03-14T09:40:44.129Z,11.75
2024-03-14T09:41:44.105Z,11.78
2024-03-14T09:42:44.115Z,11.75
2024-03-14T09:43:44.060Z,11.79
2024-03-14T09:44:44.036Z,11.80
2024-03-14T09:45:44.132Z,11.82
2024-03-14T09:46:44.014Z,11.86
2024-03-14T09:47:44.067Z,11.85
2024-03-14T09:48:44.051Z,11.79
2024-03-14T09:49:44.002Z,11.83
2024-03-14T09:50:43.995Z,11.88
2024-03-14T09:51:44.046Z,11.95
2024-03-14T09:52:43.978Z,11.99
2024-03-14T09:53:43.967Z,11.99
2024-03-14T09:54:43.981Z,12.05
2024-03-14T09:55:43.978Z,12.07
2024-03-14T09:56:43.919Z,12.12
2024-03-14T09:57:44.005Z,12.14
2024-03-14T09:58:43.938Z,12.17
2024-03-14T09:59:43.901Z,12.24
2024-03-14T10:00:43.944Z,12.29
2024-03-14T10:01:43.871Z,12.34
2024-03-14T10:02:43.870Z,12.38
2024-03-14T10:03:43.962Z,12.38
2024-03-14T10:04:43.881Z,12.38
2024-03-14T10:05:43.865Z,12.41
2024-03-14T10:06:43.944Z,12.45
2024-03-14T10:07:43.817Z,12.45
2024-03-14T10:08:43.826Z,12.42
2024-03-14T10:09:43.815Z,12.42
2024-03-14T10:10:43.845Z,12.45
2024-03-14T10:11:43.800Z,12.47
2024-03-14T10:12:43.799Z,12.47
2024-03-14T10:13:43.755Z,12.50
2024-03-14T10:14:43.759Z,12.56
2024-03-14T10:15:43.807Z,12.59
2024-03-14T10:16:43.719Z,12.62
2024-03-14T10:17:43.717Z,12.64
2024-03-14T10:18:43.795Z,12.65
2024-03-14T10:19:43.685Z,12.65
2024-03-14T10:20:43.736Z,12.71
2024-03-14T10:21:43.728Z,12.72
2024-03-14T10:22:43.684Z,12.74
2024-03-14T10:23:43.640Z,12.79
2024-03-14T10:24:43.704Z,12.82
2024-03-14T10:25:43.631Z,12.85
2024-03-14T10:26:43.648Z,12.90
2024-03-14T10:27:53.532Z,12.89
2024-03-14T10:28:43.625Z,12.95
2024-03-14T10:29:43.596Z,13.00
2024-03-14T10:30:43.600Z,13.01
2024-03-14T10:31:43.572Z,13.00
2024-03-14T10:32:43.574Z,13.01
2024-03-14T10:33:43.625Z,12.96
2024-03-14T10:34:43.615Z,12.97
2024-03-14T10:35:43.527Z,13.03
2024-03-14T10:36:43.593Z,13.05
2024-03-14T10:37:43.499Z,13.05
2024-03-14T10:38:43.529Z,13.07
2024-03-14T10:39:43.606Z,13.08
2024-03-14T10:40:43.551Z,13.12
2024-03-14T10:41:43.449Z,13.15
2024-03-14T10:42:43.498Z,13.20
2024-03-14T10:43:43.468Z,13.19
2024-03-14T10:44:43.424Z,13.22
2024-03-14T10:45:43.528Z,13.28
2024-03-14T10:46:43.417Z,13.32
2024-03-14T10:47:43.428Z,13.29
2024-03-14T10:48:43.458Z,13.28
2024-03-14T10:49:43.383Z,13.33
2024-03-14T10:50:43.363Z,13.38
2024-03-14T10:51:43.415Z,13.46
2024-03-14T10:52:43.342Z,13.54
2024-03-14T10:53:43.434Z,13.57
2024-03-14T10:54:43.362Z,13.63
2024-03-14T10:55:43.329Z,13.67
2024-03-14T10:56:43.967Z,13.66
2024-03-14T10:57:43.346Z,13.66
2024-03-14T10:58:43.273Z,13.64
2024-03-14T10:59:43.287Z,13.63
2024-03-14T11:00:43.333Z,13.64
2024-03-14T11:01:43.267Z,13.66
2024-03-14T11:02:43.222Z,13.60
2024-03-14T11:03:43.335Z,13.59
2024-03-14T11:04:43.231Z,13.55
2024-03-14T11:05:43.225Z,13.57
2024-03-14T11:06:43.278Z,13.62
2024-03-14T11:07:43.215Z,13.62
2024-03-14T11:08:43.207Z,13.62
2024-03-14T11:09:43.228Z,13.63
2024-03-14T11:10:43.287Z,13.60
2024-03-14T11:11:43.253Z,13.63
2024-03-14T11:12:43.160Z,13.67
2024-03-14T11:13:43.141Z,13.70
2024-03-14T11:14:43.130Z,13.77
2024-03-14T11:15:43.162Z,13.75
2024-03-14T11:16:43.164Z,13.78
2024-03-14T11:17:43.115Z,13.75
2024-03-14T11:18:43.162Z,13.77
2024-03-14T11:19:43.067Z,13.73
2024-03-14T11:20:43.050Z,13.78
2024-03-14T11:21:43.124Z,13.87
2024-03-14T11:22:43.064Z,13.95
2024-03-14T11:23:43.036Z,13.97
2024-03-14T11:24:43.092Z,13.96
2024-03-14T11:25:43.004Z,14.00
2024-03-14T11:26:42.969Z,14.02
2024-03-14T11:27:43.003Z,13.99
2024-03-14T11:28:42.979Z,13.97
2024-03-14T11:29:42.988Z,14.00
2024-03-14T11:30:42.962Z,14.03
2024-03-14T11:31:42.937Z,14.04
2024-03-14T11:32:42.951Z,14.03
2024-03-14T11:33:42.952Z,14.04
2024-03-14T11:34:42.897Z,14.06
2024-03-14T11:35:42.907Z,14.09
2024-03-14T11:36:43.006Z,14.14
2024-03-14T11:37:42.880Z,14.18
2024-03-14T11:38:42.843Z,14.22
2024-03-14T11:39:42.902Z,14.25
2024-03-14T11:40:42.835Z,14.24
2024-03-14T11:41:42.810Z,14.24
2024-03-14T11:42:42.871Z,14.25
2024-03-14T11:43:42.806Z,14.25
2024-03-14T11:44:42.798Z,14.27
2024-03-14T11:45:42.821Z,14.21
2024-03-14T11:46:42.957Z,14.21
2024-03-14T11:47:42.925Z,14.24
2024-03-14T11:48:42.825Z,14.25
2024-03-14T11:49:42.747Z,14.28
2024-03-14T11:50:42.709Z,14.36
2024-03-14T11:51:43.010Z,14.43
2024-03-14T11:52:42.716Z,14.52
2024-03-14T11:53:42.751Z,14.57
2024-03-14T11:54:42.802Z,14.54
2024-03-14T11:55:45.676Z,14.58
2024-03-14T11:56:42.668Z,14.57
2024-03-14T11:57:42.675Z,14.52
2024-03-14T11:58:43.537Z,14.47
2024-03-14T11:59:47.606Z,14.46
2024-03-14T12:00:42.633Z,14.46
2024-03-14T12:01:50.387Z,14.50
2024-03-14T12:02:42.699Z,14.52
2024-03-14T12:03:42.611Z,14.52
2024-03-14T12:04:42.564Z,14.47
2024-03-14T12:05:42.567Z,14.46
2024-03-14T12:06:42.560Z,14.43
2024-03-14T12:07:42.565Z,14.42
2024-03-14T12:08:42.696Z,14.39
2024-03-14T12:09:42.590Z,14.36
2024-03-14T12:10:42.498Z,14.27
2024-03-14T12:11:42.532Z,14.18
2024-03-14T12:12:42.508Z,14.17
2024-03-14T12:13:42.476Z,14.17
2024-03-14T12:14:42.482Z,14.17
2024-03-14T12:15:42.526Z,14.18
2024-03-14T12:16:42.426Z,14.18
2024-03-14T12:17:42.454Z,14.25
2024-03-14T12:18:42.452Z,14.29
2024-03-14T12:19:42.509Z,14.37
2024-03-14T12:20:42.420Z,14.36
2024-03-14T12:21:42.492Z,14.36
2024-03-14T12:22:42.384Z,14.36
2024-03-14T12:23:42.379Z,14.42
2024-03-14T12:24:42.395Z,14.46
2024-03-14T12:25:42.382Z,14.46
2024-03-14T12:26:42.354Z,14.46
2024-03-14T12:27:42.327Z,14.47
2024-03-14T12:28:42.404Z,14.47
2024-03-14T12:29:42.313Z,14.50
2024-03-14T12:30:42.341Z,14.47
2024-03-14T12:31:42.277Z,14.46
2024-03-14T12:32:42.279Z,14.50
2024-03-14T12:33:42.255Z,14.50
2024-03-14T12:34:42.259Z,14.45
2024-03-14T12:35:42.297Z,14.42
2024-03-14T12:36:42.304Z,14.42
2024-03-14T12:37:42.225Z,14.40
2024-03-14T12:38:42.263Z,14.39
2024-03-14T12:39:42.274Z,14.40
2024-03-14T12:40:42.191Z,14.39
2024-03-14T12:41:42.161Z,14.36
2024-03-14T12:42:42.201Z,14.29
2024-03-14T12:43:42.153Z,14.25
2024-03-14T12:44:42.179Z,14.25
2024-03-14T12:45:42.174Z,14.27
2024-03-14T12:46:42.144Z,14.27
2024-03-14T12:47:42.120Z,14.25
2024-03-14T12:48:42.131Z,14.22
2024-03-14T12:49:42.094Z,14.21
2024-03-14T12:50:43.903Z,14.20
2024-03-14T12:51:42.156Z,14.20
2024-03-14T12:52:42.089Z,14.20
2024-03-14T12:53:42.042Z,14.21
2024-03-14T12:54:42.216Z,14.21
2024-03-14T12:55:42.033Z,14.22
2024-03-14T12:56:42.022Z,14.25
2024-03-14T12:57:42.039Z,14.27
2024-03-14T12:58:42.011Z,14.32
2024-03-14T12:59:42.008Z,14.36
2024-03-14T13:00:42.079Z,14.36
2024-03-14T13:01:42.018Z,14.40
2024-03-14T13:02:41.947Z,14.46
2024-03-14T13:03:41.999Z,14.50
2024-03-14T13:04:42.019Z,14.52
2024-03-14T13:05:41.926Z,14.52
2024-03-14T13:06:41.958Z,14.57
2024-03-14T13:07:41.912Z,14.61